Time;durP1;ratioP1;P1;durP2;ratioP2;P2;SDS_P1;SDS_P2;PMS_P1;PMS_P2;Temp;Humidity;BMP_temperature;BMP_pressure;BME280_temperature;BME280_humidity;BME280_pressure;Samples;Min_cycle;Max_cycle;Signal;HPM_P1;HPM_P2
2022/05/11 04:04:50;;;;;;;6.13;5.53;;;14.50;99.90;;;;;;5268487;22;20571;-65
2022/05/11 04:07:16;;;;;;;7.30;6.23;;;14.50;99.90;;;;;;5033808;28;21035;-65
2022/05/11 04:09:42;;;;;;;6.20;5.60;;;14.60;99.90;;;;;;5034061;28;20193;-65
2022/05/11 04:12:08;;;;;;;6.23;5.50;;;14.60;99.90;;;;;;5033450;28;20167;-65
2022/05/11 04:14:34;;;;;;;6.30;5.53;;;14.70;99.90;;;;;;5033741;28;20186;-64
2022/05/11 04:17:00;;;;;;;7.63;6.40;;;14.70;99.90;;;;;;5033876;28;20495;-64
2022/05/11 04:19:26;;;;;;;6.37;5.77;;;14.80;99.90;;;;;;5033788;28;20169;-65
2022/05/11 04:21:52;;;;;;;6.03;5.40;;;14.80;99.90;;;;;;5033372;28;20690;-65
2022/05/11 04:24:18;;;;;;;7.13;6.30;;;14.90;99.90;;;;;;5033450;28;20460;-64
2022/05/11 04:26:43;;;;;;;5.30;4.73;;;14.90;99.90;;;;;;5033695;28;20655;-64
2022/05/11 04:29:09;;;;;;;7.43;6.23;;;15.00;99.90;;;;;;5015755;28;20170;-64
2022/05/11 04:31:35;;;;;;;6.87;5.73;;;15.10;99.90;;;;;;5033639;28;20178;-64
2022/05/11 04:34:00;;;;;;;6.80;5.83;;;15.10;99.90;;;;;;5031700;28;20689;-64
2022/05/11 04:36:26;;;;;;;6.30;5.70;;;15.10;99.90;;;;;;5033445;28;20917;-64
2022/05/11 04:38:53;;;;;;;5.70;4.80;;;15.30;99.90;;;;;;5033430;28;20238;-64
2022/05/11 04:41:19;;;;;;;5.47;4.83;;;15.40;99.90;;;;;;5033014;28;20178;-64
2022/05/11 04:43:44;;;;;;;5.67;5.17;;;15.50;99.90;;;;;;5032877;28;20464;-64
2022/05/11 04:46:10;;;;;;;5.00;4.60;;;15.60;99.90;;;;;;5033485;28;20201;-64
2022/05/11 04:48:35;;;;;;;5.37;4.90;;;15.80;99.90;;;;;;5033470;28;20177;-65
2022/05/11 04:51:03;;;;;;;4.10;3.80;;;16.00;99.90;;;;;;5032963;28;20178;-64
2022/05/11 04:53:30;;;;;;;6.03;4.50;;;16.20;99.90;;;;;;5014730;28;20190;-65
2022/05/11 04:55:55;;;;;;;6.33;4.93;;;16.40;99.90;;;;;;5033223;28;20417;-66
2022/05/11 04:58:22;;;;;;;4.60;4.20;;;16.60;99.90;;;;;;5033169;28;20417;-64
2022/05/11 05:00:47;;;;;;;5.70;5.20;;;16.80;99.90;;;;;;5033265;28;20220;-64
2022/05/11 05:03:15;;;;;;;4.40;4.00;;;16.90;99.90;;;;;;5032719;28;20810;-63
2022/05/11 05:05:41;;;;;;;5.30;4.80;;;17.10;99.90;;;;;;5015213;28;20195;-64
2022/05/11 05:08:08;;;;;;;4.23;3.70;;;17.10;99.90;;;;;;5032905;28;20435;-65
2022/05/11 05:10:34;;;;;;;5.17;4.67;;;17.20;99.90;;;;;;5033137;28;20777;-65
2022/05/11 05:13:05;;;;;;;4.03;3.73;;;17.40;99.90;;;;;;5032639;28;20409;-66
2022/05/11 05:15:31;;;;;;;4.33;3.87;;;17.40;99.90;;;;;;5032925;28;20793;-61
2022/05/11 05:17:57;;;;;;;3.13;2.90;;;17.50;99.90;;;;;;5033129;28;20384;-62
2022/05/11 05:20:23;;;;;;;5.73;4.70;;;17.70;99.90;;;;;;5032876;28;20408;-62
2022/05/11 05:22:49;;;;;;;4.30;4.00;;;17.70;99.90;;;;;;5033171;28;20413;-62
2022/05/11 05:25:15;;;;;;;5.63;5.07;;;17.80;99.90;;;;;;5036859;28;20183;-62
2022/05/11 05:27:40;;;;;;;4.43;4.00;;;17.90;99.90;;;;;;5036917;28;20498;-62
2022/05/11 05:32:51;;;;;;;4.90;4.27;;;18.20;99.90;;;;;;5036830;28;20551;-62
2022/05/11 05:35:18;;;;;;;4.57;4.17;;;18.40;99.90;;;;;;5036687;28;20469;-62
2022/05/11 05:37:44;;;;;;;5.40;4.57;;;18.60;99.90;;;;;;5036003;28;20410;-62
2022/05/11 05:40:11;;;;;;;3.50;3.20;;;18.80;99.90;;;;;;5035950;28;20809;-61
2022/05/11 05:42:37;;;;;;;4.30;3.90;;;18.90;99.90;;;;;;5034086;28;20422;-61
2022/05/11 05:45:03;;;;;;;3.90;3.60;;;19.10;99.90;;;;;;5016372;28;20947;-61
2022/05/11 05:47:29;;;;;;;4.33;3.93;;;19.20;99.90;;;;;;5033332;28;20686;-61
2022/05/11 05:49:55;;;;;;;3.50;3.30;;;19.20;99.90;;;;;;5036300;28;20424;-61
2022/05/11 05:52:23;;;;;;;4.90;4.00;;;19.30;99.90;;;;;;5035622;28;20631;-61
2022/05/11 05:54:51;;;;;;;3.70;3.10;;;19.30;99.90;;;;;;5036301;28;20893;-60
2022/05/11 05:57:17;;;;;;;3.80;3.50;;;19.40;99.90;;;;;;5035995;28;20433;-60
2022/05/11 05:59:45;;;;;;;2.70;2.50;;;19.50;99.90;;;;;;5034885;28;20568;-61
2022/05/11 06:02:14;;;;;;;3.60;3.30;;;19.70;99.90;;;;;;5035581;28;20432;-61
2022/05/11 06:04:48;;;;;;;3.80;3.53;;;19.80;99.90;;;;;;5035553;28;20442;-60
2022/05/11 06:07:15;;;;;;;3.63;3.33;;;19.90;99.90;;;;;;5035680;28;20463;-61
2022/05/11 06:09:42;;;;;;;3.47;3.27;;;20.00;99.90;;;;;;5035205;28;20475;-61
2022/05/11 06:12:10;;;;;;;4.60;4.03;;;20.20;99.90;;;;;;5017026;28;20399;-60
2022/05/11 06:14:36;;;;;;;3.20;2.90;;;20.40;99.90;;;;;;5034674;28;20425;-62
2022/05/11 06:17:03;;;;;;;3.47;3.17;;;20.60;99.90;;;;;;5035760;28;20415;-61
2022/05/11 06:19:29;;;;;;;6.03;3.53;;;20.60;99.90;;;;;;5036231;28;20434;-61
2022/05/11 06:21:55;;;;;;;3.33;3.03;;;20.70;99.90;;;;;;5035813;28;20448;-61
2022/05/11 06:24:20;;;;;;;3.93;3.53;;;20.70;99.90;;;;;;5034903;28;20833;-61
2022/05/11 06:26:46;;;;;;;3.83;3.53;;;20.80;99.90;;;;;;5035252;28;20277;-61
2022/05/11 06:29:12;;;;;;;3.33;3.03;;;20.90;99.90;;;;;;5035761;28;20528;-61
2022/05/11 06:31:38;;;;;;;4.33;3.63;;;20.90;99.90;;;;;;5035363;28;20173;-62
2022/05/11 06:34:05;;;;;;;2.83;2.63;;;21.00;99.90;;;;;;5034921;28;20412;-61
2022/05/11 06:36:31;;;;;;;4.03;3.67;;;21.10;99.90;;;;;;5035447;28;20424;-61
2022/05/11 06:38:57;;;;;;;3.80;3.50;;;21.20;99.90;;;;;;5035479;28;20394;-61
2022/05/11 06:41:26;;;;;;;3.13;2.93;;;21.20;99.40;;;;;;5035268;28;20253;-61
2022/05/11 06:43:53;;;;;;;3.93;3.33;;;21.40;99.40;;;;;;5034785;28;20425;-61
2022/05/11 06:46:19;;;;;;;5.60;3.30;;;21.50;99.20;;;;;;5035039;28;20423;-61
2022/05/11 06:48:45;;;;;;;3.47;2.93;;;21.50;99.00;;;;;;5035449;28;20372;-62
2022/05/11 06:51:12;;;;;;;3.03;2.83;;;21.60;98.90;;;;;;5035065;28;20413;-61
2022/05/11 06:59:21;;;;;;;2.93;2.73;;;21.70;98.40;;;;;;5032959;28;20471;-61
2022/05/11 07:01:57;;;;;;;4.07;3.33;;;21.90;98.00;;;;;;5032876;28;20440;-61
2022/05/11 07:04:23;;;;;;;6.17;3.10;;;21.90;98.10;;;;;;5032439;28;20461;-61
2022/05/11 07:07:00;;;;;;;2.80;2.60;;;22.10;97.80;;;;;;5034709;28;20454;-61
2022/05/11 07:09:28;;;;;;;3.60;3.27;;;22.20;97.60;;;;;;5035011;28;20413;-62
2022/05/11 07:14:39;;;;;;;2.80;2.60;;;22.30;97.10;;;;;;5034860;28;20907;-61
2022/05/11 07:17:05;;;;;;;3.20;3.00;;;22.30;97.10;;;;;;5034404;28;20904;-61
2022/05/11 07:19:32;;;;;;;4.23;3.27;;;22.50;97.20;;;;;;5034838;28;20485;-61
2022/05/11 07:21:58;;;;;;;3.97;3.60;;;22.70;96.70;;;;;;5033257;28;20414;-62
2022/05/11 07:24:23;;;;;;;2.93;2.73;;;22.90;96.40;;;;;;5032221;28;20439;-62
2022/05/11 07:26:49;;;;;;;4.57;4.13;;;23.30;96.10;;;;;;5032246;28;20198;-61
2022/05/11 07:29:15;;;;;;;4.07;3.40;;;23.70;95.70;;;;;;5032477;28;20174;-62
2022/05/11 07:31:42;;;;;;;5.07;4.63;;;24.30;95.30;;;;;;5032291;28;20428;-62
2022/05/11 07:34:07;;;;;;;4.10;3.70;;;25.00;94.60;;;;;;5031942;28;20435;-62
2022/05/11 07:36:33;;;;;;;4.30;3.90;;;25.80;93.20;;;;;;5032790;28;20441;-62
2022/05/11 07:38:58;;;;;;;3.47;3.27;;;26.70;91.50;;;;;;5034461;28;20178;-62
2022/05/11 07:41:24;;;;;;;3.60;3.40;;;27.80;90.30;;;;;;5034454;28;20327;-60
2022/05/11 07:43:50;;;;;;;3.47;3.17;;;29.00;86.90;;;;;;5033633;28;20209;-60
2022/05/11 07:46:16;;;;;;;5.30;3.50;;;30.10;82.20;;;;;;5033757;28;20210;-60
2022/05/11 07:48:42;;;;;;;3.27;3.07;;;31.00;78.90;;;;;;5034467;28;20247;-60
2022/05/11 07:51:08;;;;;;;4.30;4.00;;;31.90;75.20;;;;;;5034234;28;20221;-61
2022/05/11 07:53:34;;;;;;;3.90;3.60;;;32.80;73.00;;;;;;5033448;28;20922;-61
2022/05/11 08:01:28;;;;;;;4.40;4.10;;;34.50;64.60;;;;;;5034127;28;20456;-60
2022/05/11 08:03:53;;;;;;;4.67;4.37;;;34.90;61.40;;;;;;5033157;28;20954;-60
2022/05/11 08:06:19;;;;;;;4.50;4.07;;;35.20;59.20;;;;;;5033635;28;20198;-60
2022/05/11 08:08:45;;;;;;;3.83;3.53;;;35.50;58.90;;;;;;5033510;28;20548;-61
2022/05/11 08:11:11;;;;;;;3.60;3.40;;;35.90;58.10;;;;;;5033633;28;20200;-61
2022/05/11 08:13:37;;;;;;;4.07;3.87;;;36.10;57.80;;;;;;5033233;28;20448;-61
2022/05/11 08:16:03;;;;;;;4.43;4.03;;;36.50;57.40;;;;;;5033290;28;20194;-61
2022/05/11 08:18:29;;;;;;;3.63;3.43;;;37.00;55.20;;;;;;5033824;28;20178;-61
2022/05/11 08:20:54;;;;;;;4.90;4.50;;;37.40;54.60;;;;;;5033668;28;20182;-62
2022/05/11 08:23:21;;;;;;;3.87;3.63;;;37.60;53.40;;;;;;5032904;28;20691;-62
2022/05/11 08:25:47;;;;;;;4.40;4.10;;;37.60;52.90;;;;;;5033490;28;20301;-62
2022/05/11 08:28:18;;;;;;;4.00;3.70;;;37.90;52.50;;;;;;5033385;28;20401;-60
2022/05/11 08:33:31;;;;;;;4.90;4.17;;;37.90;51.20;;;;;;5033344;28;20960;-62
2022/05/11 08:36:00;;;;;;;4.43;4.13;;;37.90;51.50;;;;;;5033334;28;20419;-60
2022/05/11 08:38:31;;;;;;;3.90;3.70;;;38.00;51.90;;;;;;5033485;28;20437;-60
2022/05/11 08:41:05;;;;;;;3.90;3.60;;;38.10;51.40;;;;;;5015962;28;20433;-60
2022/05/11 08:43:32;;;;;;;3.47;3.27;;;38.30;50.50;;;;;;5015257;28;20441;-60
2022/05/11 08:46:26;;;;;;;3.50;3.20;;;38.30;48.40;;;;;;5032789;28;20555;-60
2022/05/11 08:49:26;;;;;;;3.10;3.00;;;37.90;48.10;;;;;;5033624;28;20408;-61
2022/05/11 08:51:56;;;;;;;3.47;3.33;;;37.90;49.50;;;;;;5019676;28;20425;-61
2022/05/11 08:54:42;;;;;;;3.57;3.37;;;38.20;48.40;;;;;;5032752;28;20437;-61
2022/05/11 08:57:14;;;;;;;4.00;3.70;;;38.40;47.10;;;;;;5033310;28;20491;-62
2022/05/11 08:59:40;;;;;;;3.30;3.07;;;38.40;47.50;;;;;;5037488;28;20820;-61
2022/05/11 09:02:23;;;;;;;6.60;6.10;;;38.60;47.90;;;;;;5037219;28;20416;-61
2022/05/11 09:05:00;;;;;;;4.37;4.17;;;39.00;46.50;;;;;;5019208;28;20464;-61
2022/05/11 09:07:35;;;;;;;3.97;3.67;;;39.00;46.30;;;;;;5037098;28;20452;-61
2022/05/11 09:10:01;;;;;;;4.40;3.30;;;39.00;46.00;;;;;;5037394;28;20495;-61
2022/05/11 09:12:26;;;;;;;3.50;3.30;;;39.00;45.70;;;;;;5036964;28;20950;-61
2022/05/11 09:14:56;;;;;;;3.40;3.20;;;39.00;45.60;;;;;;5037106;28;20220;-61
2022/05/11 09:17:28;;;;;;;4.27;3.20;;;39.10;46.10;;;;;;5035769;28;20575;-62
2022/05/11 09:20:10;;;;;;;4.00;3.80;;;39.10;45.30;;;;;;5034998;28;20401;-61
2022/05/11 09:22:42;;;;;;;4.23;3.97;;;39.30;45.50;;;;;;5034686;28;20814;-61
2022/05/11 09:25:21;;;;;;;3.67;3.47;;;39.30;45.10;;;;;;5034847;28;20419;-61
2022/05/11 09:27:48;;;;;;;4.87;4.47;;;39.20;44.20;;;;;;5034839;28;20496;-61
2022/05/11 09:30:29;;;;;;;9.87;3.87;;;38.90;44.30;;;;;;5035048;28;20428;-61
2022/05/11 09:33:15;;;;;;;4.10;3.90;;;38.80;44.70;;;;;;5036410;28;20412;-61
2022/05/11 09:35:42;;;;;;;3.93;3.73;;;38.90;44.50;;;;;;5036851;28;20401;-61
2022/05/11 09:38:14;;;;;;;4.10;3.80;;;38.80;44.10;;;;;;5036707;28;20412;-62
2022/05/11 09:41:02;;;;;;;4.30;4.03;;;38.80;44.20;;;;;;5036663;28;20405;-62
2022/05/11 09:43:36;;;;;;;3.87;3.67;;;39.00;45.60;;;;;;5036390;28;20440;-61
2022/05/11 09:46:27;;;;;;;4.57;4.20;;;39.10;44.80;;;;;;5036844;28;20915;-61
2022/05/11 09:49:06;;;;;;;6.43;6.13;;;39.30;44.00;;;;;;5036696;28;20488;-61
2022/05/11 09:51:35;;;;;;;3.97;3.77;;;39.30;43.50;;;;;;5036596;28;20762;-61
2022/05/11 09:54:24;;;;;;;5.00;4.70;;;39.30;43.20;;;;;;5036027;28;20425;-61
2022/05/11 09:56:58;;;;;;;4.07;3.87;;;39.00;43.70;;;;;;5036613;28;20432;-61
2022/05/11 09:59:37;;;;;;;4.27;4.07;;;38.60;43.70;;;;;;5036368;28;20401;-61
2022/05/11 10:02:32;;;;;;;4.00;3.80;;;37.90;44.60;;;;;;5036072;28;20909;-61
2022/05/11 10:05:24;;;;;;;4.00;3.80;;;37.80;44.80;;;;;;5018274;28;20582;-61
2022/05/11 10:08:02;;;;;;;3.60;3.40;;;37.60;45.60;;;;;;5036177;28;20524;-61
2022/05/11 10:10:48;;;;;;;4.83;4.00;;;37.60;45.40;;;;;;5036233;28;20492;-62
2022/05/11 10:13:39;;;;;;;4.40;4.10;;;37.70;46.40;;;;;;5035557;28;20441;-62
2022/05/11 10:22:05;;;;;;;4.60;4.40;;;38.20;45.90;;;;;;5035863;28;20906;-62
2022/05/11 10:24:55;;;;;;;4.77;4.47;;;38.10;45.50;;;;;;5035557;28;20432;-61
2022/05/11 10:27:35;;;;;;;4.17;3.97;;;38.00;45.00;;;;;;5035844;28;20400;-62
2022/05/11 10:30:03;;;;;;;4.70;4.30;;;37.60;45.20;;;;;;5035862;28;20425;-62
2022/05/11 10:32:46;;;;;;;5.70;5.20;;;37.50;45.90;;;;;;5035278;28;20413;-62
2022/05/11 10:35:31;;;;;;;4.37;3.97;;;37.30;45.70;;;;;;5035679;28;20467;-61
2022/05/11 10:38:19;;;;;;;4.87;4.47;;;37.10;45.80;;;;;;5035667;28;20498;-61
2022/05/11 10:41:10;;;;;;;3.73;3.53;;;36.70;46.70;;;;;;5035471;28;20436;-61
2022/05/11 10:44:00;;;;;;;5.23;4.83;;;36.60;47.20;;;;;;5035238;28;20417;-61
2022/05/11 10:46:37;;;;;;;5.07;4.67;;;36.60;48.00;;;;;;5035396;28;20405;-62
2022/05/11 10:49:18;;;;;;;4.20;3.90;;;36.20;46.80;;;;;;5035549;28;20412;-60
2022/05/11 10:52:03;;;;;;;4.67;4.30;;;35.90;47.50;;;;;;5035564;28;20736;-62
2022/05/11 10:55:07;;;;;;;5.63;5.23;;;35.60;48.30;;;;;;5035204;28;20505;-62
2022/05/11 10:57:46;;;;;;;4.70;4.13;;;35.40;47.70;;;;;;5035256;28;20436;-62
2022/05/11 11:00:15;;;;;;;4.43;4.13;;;35.20;47.80;;;;;;5035069;28;20409;-60
2022/05/11 11:03:18;;;;;;;3.93;3.70;;;34.70;47.00;;;;;;5014592;28;20495;-63
2022/05/11 11:09:15;;;;;;;3.90;3.60;;;34.00;48.60;;;;;;5015310;28;20397;-61
2022/05/11 11:12:00;;;;;;;3.70;3.40;;;33.40;47.80;;;;;;5015167;28;20490;-61
2022/05/11 11:14:34;;;;;;;3.87;3.60;;;32.60;48.70;;;;;;5002704;28;20414;-62
2022/05/11 11:17:05;;;;;;;3.87;3.40;;;32.20;49.90;;;;;;5034037;28;20441;-62
2022/05/11 11:19:33;;;;;;;3.47;3.23;;;31.80;49.30;;;;;;5034237;28;20426;-62
2022/05/11 11:22:01;;;;;;;4.40;4.00;;;31.40;49.80;;;;;;5033378;28;20375;-62
2022/05/11 11:24:28;;;;;;;3.50;3.30;;;31.20;50.30;;;;;;5033742;28;20436;-61
2022/05/11 11:27:03;;;;;;;4.07;3.77;;;31.00;49.50;;;;;;5034097;28;20430;-62
2022/05/11 11:29:39;;;;;;;3.60;3.30;;;30.80;51.50;;;;;;5034409;28;20393;-62
2022/05/11 11:32:07;;;;;;;3.93;3.53;;;30.80;50.80;;;;;;5034317;28;20865;-62
2022/05/11 11:34:44;;;;;;;4.87;4.37;;;30.60;50.30;;;;;;5034531;28;20451;-66
2022/05/11 11:37:38;;;;;;;3.47;3.17;;;30.30;49.70;;;;;;5034266;28;20430;-63
2022/05/11 11:40:14;;;;;;;3.80;3.60;;;29.90;50.80;;;;;;5030409;28;20431;-62
2022/05/11 11:42:43;;;;;;;4.50;4.20;;;29.70;51.30;;;;;;5033900;28;20383;-62
2022/05/11 11:45:31;;;;;;;3.60;3.30;;;29.70;53.30;;;;;;5034468;28;20425;-61
2022/05/11 11:48:21;;;;;;;5.10;4.70;;;29.80;53.60;;;;;;5034075;28;20417;-64
2022/05/11 11:51:01;;;;;;;5.10;4.70;;;29.70;54.40;;;;;;5034191;28;20383;-64
2022/05/11 11:53:35;;;;;;;4.30;4.00;;;29.80;55.10;;;;;;5015959;28;20435;-64
2022/05/11 11:56:25;;;;;;;6.03;4.30;;;29.90;55.40;;;;;;5033926;28;20413;-63
2022/05/11 11:59:09;;;;;;;4.23;3.83;;;30.00;54.10;;;;;;5034337;28;20441;-63
2022/05/11 12:01:40;;;;;;;3.60;3.40;;;30.00;54.90;;;;;;5034451;28;20386;-63
2022/05/11 12:04:12;;;;;;;4.00;3.70;;;30.00;53.50;;;;;;5033693;28;20452;-66
2022/05/11 12:15:20;;;;;;;3.80;3.50;;;29.80;52.80;;;;;;5014444;28;20899;-63
2022/05/11 12:17:46;;;;;;;4.23;3.93;;;29.70;52.70;;;;;;5014378;28;20480;-63
2022/05/11 12:20:17;;;;;;;3.57;3.33;;;29.80;51.40;;;;;;4996466;28;20422;-63
2022/05/11 12:22:48;;;;;;;3.40;3.10;;;29.80;50.90;;;;;;5023887;28;20399;-63
2022/05/11 12:25:31;;;;;;;3.53;3.30;;;29.80;50.90;;;;;;5033580;28;20391;-63
2022/05/11 12:28:00;;;;;;;2.60;2.40;;;29.80;50.40;;;;;;5033359;28;20399;-63
2022/05/11 12:30:32;;;;;;;2.50;2.40;;;29.80;49.80;;;;;;5033565;28;20808;-63
2022/05/11 12:33:05;;;;;;;3.17;2.97;;;29.80;49.20;;;;;;5032604;28;20421;-63
2022/05/11 12:35:49;;;;;;;4.30;2.73;;;29.70;49.40;;;;;;5032628;28;20504;-63
2022/05/11 12:38:27;;;;;;;2.63;2.43;;;29.70;49.60;;;;;;5028871;28;20417;-64
2022/05/11 12:40:53;;;;;;;3.60;3.40;;;29.60;51.60;;;;;;5032033;28;20403;-63
2022/05/11 12:43:35;;;;;;;2.67;2.50;;;29.60;50.80;;;;;;5031635;28;20391;-64
2022/05/11 12:46:02;;;;;;;2.87;2.67;;;29.50;49.50;;;;;;5032145;28;20889;-64
2022/05/11 12:48:34;;;;;;;2.50;2.40;;;29.40;49.70;;;;;;5031957;28;20401;-63
2022/05/11 12:51:13;;;;;;;3.87;3.17;;;29.30;49.30;;;;;;5032497;28;20401;-64
2022/05/11 12:54:06;;;;;;;2.73;2.53;;;29.30;50.00;;;;;;5032929;28;20822;-64
2022/05/11 12:56:35;;;;;;;2.90;2.53;;;29.40;50.20;;;;;;5028787;28;20431;-63
2022/05/11 12:59:04;;;;;;;2.87;2.57;;;29.50;49.10;;;;;;5033448;28;20715;-63
2022/05/11 13:01:33;;;;;;;3.13;2.93;;;29.60;49.10;;;;;;5033034;28;20401;-64
2022/05/11 13:04:02;;;;;;;4.20;2.80;;;29.60;49.00;;;;;;5019217;28;20444;-63
2022/05/11 13:06:40;;;;;;;2.43;2.33;;;29.60;49.00;;;;;;5033183;28;20440;-63
2022/05/11 13:09:15;;;;;;;2.60;2.40;;;29.50;47.80;;;;;;5033137;28;20807;-63
2022/05/11 13:11:41;;;;;;;2.50;2.30;;;29.50;47.30;;;;;;5033100;28;20418;-63
2022/05/11 13:14:35;;;;;;;4.90;2.80;;;29.50;48.50;;;;;;5032631;28;20945;-63
2022/05/11 13:17:04;;;;;;;7.60;3.30;;;29.50;48.00;;;;;;5032767;28;20441;-63
2022/05/11 13:19:35;;;;;;;4.33;2.37;;;29.60;48.70;;;;;;5032992;28;20786;-66
2022/05/11 13:22:10;;;;;;;2.10;2.00;;;29.60;47.70;;;;;;5032997;28;20415;-65
2022/05/11 13:24:50;;;;;;;4.30;2.43;;;29.60;46.70;;;;;;5032921;28;20433;-64
2022/05/11 13:27:40;;;;;;;4.67;3.33;;;29.50;47.10;;;;;;5032769;28;20906;-64
2022/05/11 13:30:32;;;;;;;3.00;2.80;;;29.40;47.70;;;;;;5033210;28;20448;-65
2022/05/11 13:33:00;;;;;;;2.97;2.77;;;29.30;47.30;;;;;;5032265;28;20400;-64
2022/05/11 13:35:32;;;;;;;5.00;4.70;;;29.30;47.80;;;;;;5014996;28;20395;-63
2022/05/11 13:38:10;;;;;;;3.90;2.87;;;29.20;47.10;;;;;;5032915;28;20457;-64
2022/05/11 13:40:50;;;;;;;3.93;2.60;;;29.20;47.10;;;;;;5032903;28;20460;-64
2022/05/11 13:43:15;;;;;;;2.60;2.40;;;29.20;47.50;;;;;;5032361;28;20398;-63
2022/05/11 13:46:04;;;;;;;2.40;2.20;;;29.10;47.00;;;;;;5036616;28;20921;-65
2022/05/11 13:48:33;;;;;;;2.50;2.30;;;29.10;47.40;;;;;;5036521;28;20256;-64
2022/05/11 13:51:26;;;;;;;2.97;2.77;;;29.10;47.50;;;;;;5036480;28;20378;-64
2022/05/11 13:53:57;;;;;;;2.57;2.37;;;29.20;47.10;;;;;;5035916;28;20954;-63
2022/05/11 13:56:28;;;;;;;2.90;2.70;;;29.10;47.10;;;;;;5036449;28;20578;-64
2022/05/11 13:58:57;;;;;;;2.70;2.50;;;29.10;48.10;;;;;;5036398;28;20407;-64
2022/05/11 14:01:26;;;;;;;2.87;2.53;;;29.10;48.40;;;;;;5036041;28;20699;-64
2022/05/11 14:04:00;;;;;;;3.30;2.43;;;29.20;48.60;;;;;;5035675;28;20941;-64
2022/05/11 14:06:29;;;;;;;6.43;2.90;;;29.30;48.00;;;;;;5036299;28;20721;-64
2022/05/11 14:08:55;;;;;;;2.77;2.57;;;29.30;47.50;;;;;;5036235;28;20900;-64
2022/05/11 14:11:22;;;;;;;2.63;2.43;;;29.20;47.50;;;;;;5036209;28;20379;-66
2022/05/11 14:13:48;;;;;;;2.33;2.17;;;29.20;45.70;;;;;;5035743;28;20453;-64
2022/05/11 14:16:22;;;;;;;2.60;2.40;;;29.10;46.20;;;;;;5035896;28;20556;-64
2022/05/11 14:18:49;;;;;;;2.10;2.00;;;29.10;46.70;;;;;;5036178;28;20395;-64
2022/05/11 14:21:15;;;;;;;4.00;2.50;;;29.10;46.00;;;;;;5037467;28;20790;-64
2022/05/11 14:23:42;;;;;;;2.37;2.27;;;29.00;46.80;;;;;;5036147;28;20429;-64
2022/05/11 14:26:08;;;;;;;2.80;2.60;;;29.00;46.80;;;;;;5035778;28;20946;-64
2022/05/11 14:28:35;;;;;;;2.40;2.20;;;29.00;46.80;;;;;;5035760;28;20455;-64
2022/05/11 14:31:01;;;;;;;2.40;2.30;;;29.10;48.40;;;;;;5035640;28;20479;-64
2022/05/11 14:33:27;;;;;;;3.20;2.60;;;29.10;47.20;;;;;;5035437;28;20432;-64
2022/05/11 14:35:54;;;;;;;6.90;3.60;;;29.00;47.50;;;;;;5035683;28;20409;-64
2022/05/11 14:38:21;;;;;;;2.80;2.60;;;29.00;47.70;;;;;;5035744;28;20395;-64
2022/05/11 14:40:46;;;;;;;3.00;2.80;;;29.00;47.40;;;;;;5035669;28;20777;-64
2022/05/11 14:43:12;;;;;;;2.73;2.53;;;29.00;47.70;;;;;;5035047;28;20424;-64
2022/05/11 14:45:40;;;;;;;2.47;2.27;;;29.00;46.30;;;;;;5035731;28;20180;-64
2022/05/11 14:48:17;;;;;;;2.17;2.07;;;29.00;46.10;;;;;;5017715;28;20556;-64
2022/05/11 14:50:43;;;;;;;2.80;2.60;;;28.90;46.70;;;;;;5035768;28;20386;-63
2022/05/11 14:53:08;;;;;;;2.37;2.27;;;28.80;47.50;;;;;;5034865;28;20496;-65
2022/05/11 14:55:34;;;;;;;3.90;2.60;;;28.80;46.50;;;;;;5033977;28;20492;-65
2022/05/11 15:03:29;;;;;;;7.97;2.80;;;28.80;47.30;;;;;;5014842;28;20432;-65
2022/05/11 15:05:56;;;;;;;3.07;2.77;;;28.80;47.80;;;;;;4997573;28;20512;-63
2022/05/11 15:08:23;;;;;;;2.50;2.40;;;28.80;47.40;;;;;;5023456;28;20404;-64
2022/05/11 15:13:29;;;;;;;3.13;2.87;;;28.70;47.20;;;;;;5035025;28;20378;-65
2022/05/11 15:13:36;;;;;;;2.47;2.27;;;28.70;47.20;;;;;;5034411;28;20794;-63
2022/05/11 15:16:01;;;;;;;2.53;2.37;;;28.70;47.50;;;;;;5017234;28;20451;-65
2022/05/11 15:18:29;;;;;;;4.37;3.53;;;28.60;47.50;;;;;;5034659;28;20449;-63
2022/05/11 15:20:55;;;;;;;2.53;2.33;;;28.70;47.60;;;;;;5034792;28;20267;-63
2022/05/11 15:23:21;;;;;;;3.20;3.00;;;28.70;47.10;;;;;;5033982;28;20418;-63
2022/05/11 15:25:47;;;;;;;3.23;3.03;;;28.60;48.10;;;;;;5034860;28;20382;-64
2022/05/11 15:28:14;;;;;;;2.87;2.57;;;28.60;48.90;;;;;;5034830;28;20420;-63
2022/05/11 15:30:42;;;;;;;3.83;2.97;;;28.60;49.80;;;;;;5016843;28;20786;-65
2022/05/11 15:33:11;;;;;;;2.90;2.70;;;28.50;50.10;;;;;;5034281;28;20470;-64
2022/05/11 15:35:36;;;;;;;2.80;2.60;;;28.60;50.80;;;;;;5034529;28;20409;-63
2022/05/11 15:38:03;;;;;;;3.03;2.83;;;28.60;50.20;;;;;;5034187;28;20456;-65
2022/05/11 15:40:29;;;;;;;2.80;2.60;;;28.60;49.90;;;;;;5034520;28;20179;-65
2022/05/11 15:42:57;;;;;;;2.80;2.60;;;28.60;49.80;;;;;;5033617;28;20896;-65
2022/05/11 15:45:26;;;;;;;3.03;2.83;;;28.60;50.60;;;;;;5034268;28;20469;-64
2022/05/11 15:47:52;;;;;;;3.37;3.17;;;28.60;51.00;;;;;;5034634;28;20428;-65
2022/05/11 15:50:18;;;;;;;2.70;2.50;;;28.60;50.20;;;;;;5034217;28;20409;-65
2022/05/11 15:52:48;;;;;;;3.90;3.60;;;28.50;50.00;;;;;;5033868;28;20423;-65
2022/05/11 15:55:15;;;;;;;3.30;3.10;;;28.40;50.40;;;;;;5034410;28;20182;-65
2022/05/11 15:57:42;;;;;;;3.13;2.93;;;28.40;50.20;;;;;;5033920;28;20546;-65
2022/05/11 16:00:10;;;;;;;2.90;2.70;;;28.40;51.10;;;;;;5034490;28;20386;-64
2022/05/11 16:02:37;;;;;;;2.97;2.77;;;28.30;50.00;;;;;;5033776;28;20481;-65
2022/05/11 16:05:05;;;;;;;3.33;2.93;;;28.20;50.90;;;;;;5033660;28;20468;-65
2022/05/11 16:07:31;;;;;;;3.23;2.60;;;28.10;51.40;;;;;;5033674;28;20405;-65
2022/05/11 16:09:56;;;;;;;3.07;2.77;;;28.20;50.90;;;;;;5034147;28;20397;-65
2022/05/11 16:12:22;;;;;;;2.30;2.20;;;28.10;50.50;;;;;;5015864;28;20889;-64
2022/05/11 16:14:48;;;;;;;2.10;2.00;;;28.10;48.30;;;;;;5033750;28;20267;-64
2022/05/11 16:19:59;;;;;;;2.33;2.13;;;28.10;49.10;;;;;;5034026;28;20704;-64
2022/05/11 16:22:28;;;;;;;2.90;2.70;;;28.00;48.80;;;;;;5033393;28;20411;-64
2022/05/11 16:24:55;;;;;;;2.70;2.50;;;28.00;48.70;;;;;;5033547;28;20463;-63
2022/05/11 16:27:21;;;;;;;2.57;2.37;;;28.00;49.40;;;;;;5033553;28;20417;-63
2022/05/11 16:29:47;;;;;;;7.67;3.33;;;28.00;48.50;;;;;;5033139;28;20418;-63
2022/05/11 16:32:13;;;;;;;1.90;1.80;;;27.90;47.00;;;;;;5033077;28;20410;-64
2022/05/11 16:34:42;;;;;;;5.70;2.50;;;27.90;47.40;;;;;;5033367;28;20660;-64
2022/05/11 16:37:11;;;;;;;3.60;2.17;;;27.80;47.90;;;;;;5033567;28;20539;-64
2022/05/11 16:39:37;;;;;;;8.20;2.80;;;27.80;47.90;;;;;;5032897;28;20878;-64
2022/05/11 16:42:04;;;;;;;2.43;2.30;;;27.70;48.70;;;;;;5033339;28;20415;-63
2022/05/11 16:44:35;;;;;;;2.13;2.03;;;27.70;48.90;;;;;;5032357;28;20186;-62
2022/05/11 16:47:03;;;;;;;3.53;2.93;;;27.60;48.80;;;;;;5024238;28;20431;-65
2022/05/11 16:49:28;;;;;;;2.80;2.60;;;27.50;49.00;;;;;;5032673;28;20571;-66
2022/05/11 16:51:54;;;;;;;2.33;2.13;;;27.50;48.90;;;;;;5032675;28;20511;-70
2022/05/11 16:54:20;;;;;;;2.43;2.23;;;27.40;49.10;;;;;;5032324;28;20194;-62
2022/05/11 16:56:45;;;;;;;2.23;2.13;;;27.40;49.70;;;;;;5033214;28;20195;-62
2022/05/11 16:59:11;;;;;;;2.40;2.30;;;27.40;49.00;;;;;;5027944;28;20185;-62
2022/05/11 17:01:37;;;;;;;2.27;2.13;;;27.40;48.40;;;;;;5032520;28;20181;-61
2022/05/11 17:04:03;;;;;;;2.23;2.13;;;27.30;48.20;;;;;;5032061;28;20202;-61
2022/05/11 17:06:29;;;;;;;2.10;1.80;;;27.30;48.60;;;;;;5014541;28;20232;-61
2022/05/11 17:08:55;;;;;;;2.23;2.03;;;27.30;48.80;;;;;;5032968;28;20420;-64
2022/05/11 17:11:21;;;;;;;4.93;3.90;;;27.30;49.00;;;;;;5016707;28;20244;-62
2022/05/11 17:13:48;;;;;;;4.60;3.60;;;27.30;49.10;;;;;;5012876;28;20433;-62
2022/05/11 17:16:16;;;;;;;2.80;2.60;;;27.20;48.20;;;;;;5013211;28;20410;-64
2022/05/11 17:18:41;;;;;;;1.87;1.77;;;27.20;48.30;;;;;;5013814;28;20384;-62
2022/05/11 17:21:07;;;;;;;1.90;1.80;;;27.10;47.20;;;;;;5017026;28;20408;-62
2022/05/11 17:23:33;;;;;;;1.70;1.60;;;27.10;46.70;;;;;;5033174;28;20225;-61
2022/05/11 17:26:00;;;;;;;2.40;2.20;;;27.10;48.00;;;;;;5037097;28;20794;-61
2022/05/11 17:28:26;;;;;;;1.90;1.80;;;27.00;47.00;;;;;;5036828;28;20773;-62
2022/05/11 17:30:52;;;;;;;1.80;1.70;;;27.00;46.60;;;;;;5036704;28;20388;-63
2022/05/11 17:33:18;;;;;;;2.33;2.10;;;27.00;47.00;;;;;;5036040;28;20418;-63
2022/05/11 17:35:45;;;;;;;2.00;1.90;;;26.90;46.30;;;;;;5036724;28;20220;-63
2022/05/11 17:38:16;;;;;;;2.03;1.93;;;26.90;46.30;;;;;;5019037;28;20511;-62
2022/05/11 17:40:43;;;;;;;1.40;1.40;;;26.80;46.60;;;;;;5036457;28;20388;-60
2022/05/11 17:43:09;;;;;;;1.80;1.70;;;26.70;46.00;;;;;;5036209;28;20838;-63
2022/05/11 17:45:36;;;;;;;5.60;2.17;;;26.70;45.70;;;;;;5036570;28;20409;-63
2022/05/11 17:48:03;;;;;;;1.77;1.67;;;26.60;45.60;;;;;;5035481;28;20410;-60
2022/05/11 17:50:30;;;;;;;3.27;3.07;;;26.50;45.90;;;;;;5036327;28;20428;-61
2022/05/11 17:52:57;;;;;;;2.60;2.40;;;26.50;45.60;;;;;;5028182;28;20862;-60
2022/05/11 17:55:25;;;;;;;1.63;1.53;;;26.50;46.30;;;;;;5036482;28;20387;-60